Time;durP1;ratioP1;P1;durP2;ratioP2;P2;SDS_P1;SDS_P2;PMS_P1;PMS_P2;Temp;Humidity;BMP_temperature;BMP_pressure;BME280_temperature;BME280_humidity;BME280_pressure;Samples;Min_cycle;Max_cycle;Signal;HPM_P1;HPM_P2
2021/05/05 00:00:06;;;;;;;;;;;16.60;46.50;;;;;;5054951;28;75731;-68
2021/05/05 00:02:32;;;;;;;;;;;16.50;46.60;;;;;;5053093;28;77638;-69
2021/05/05 00:04:58;;;;;;;;;;;16.40;46.80;;;;;;5054516;28;75217;-66
2021/05/05 00:07:23;;;;;;;;;;;16.40;46.80;;;;;;5053170;28;78307;-67
2021/05/05 00:09:49;;;;;;;;;;;16.40;47.00;;;;;;5054682;27;75898;-66
2021/05/05 00:12:15;;;;;;;;;;;16.40;47.00;;;;;;5054631;28;75180;-66
2021/05/05 00:14:40;;;;;;;;;;;16.40;47.00;;;;;;5052715;28;77673;-66
2021/05/05 00:17:06;;;;;;;;;;;16.40;47.20;;;;;;5053455;28;78545;-65
2021/05/05 00:19:32;;;;;;;;;;;16.40;47.10;;;;;;5054327;27;74522;-68
2021/05/05 00:21:57;;;;;;;;;;;16.40;47.20;;;;;;5052939;28;75338;-66
2021/05/05 00:24:23;;;;;;;;;;;16.30;47.10;;;;;;5054395;27;75525;-65
2021/05/05 00:26:48;;;;;;;;;;;16.20;47.50;;;;;;5052540;28;77270;-64
2021/05/05 00:29:14;;;;;;;;;;;16.10;47.80;;;;;;5054344;27;75423;-65
2021/05/05 00:31:40;;;;;;;;;;;16.00;47.80;;;;;;5054692;27;74568;-67
2021/05/05 00:34:05;;;;;;;;;;;15.90;47.90;;;;;;5054301;27;74582;-68
2021/05/05 00:36:31;;;;;;;;;;;15.80;48.20;;;;;;5052432;28;77661;-69
2021/05/05 00:38:57;;;;;;;;;;;15.60;48.70;;;;;;5054268;27;75602;-71
2021/05/05 00:41:22;;;;;;;;;;;15.50;48.20;;;;;;5052352;28;77421;-70
2021/05/05 00:43:48;;;;;;;;;;;15.50;48.50;;;;;;5052528;28;77948;-69
2021/05/05 00:46:14;;;;;;;;;;;15.50;48.20;;;;;;5052760;28;76851;-68
2021/05/05 00:48:39;;;;;;;;;;;15.50;48.10;;;;;;5051911;27;77887;-69
2021/05/05 00:51:05;;;;;;;;;;;15.40;48.00;;;;;;5052594;28;77218;-69
2021/05/05 00:53:31;;;;;;;;;;;15.40;48.20;;;;;;5053607;27;75088;-70
2021/05/05 00:55:57;;;;;;;;;;;15.40;48.10;;;;;;5053770;27;75005;-67
2021/05/05 00:58:23;;;;;;;;;;;15.30;48.00;;;;;;5054082;28;75922;-70
2021/05/05 01:00:49;;;;;;;;;;;15.30;48.30;;;;;;5053965;27;74532;-66
2021/05/05 01:03:15;;;;;;;;;;;15.30;48.00;;;;;;5052219;28;76035;-64
2021/05/05 01:05:41;;;;;;;;;;;15.30;47.90;;;;;;5051946;28;75181;-64
2021/05/05 01:08:07;;;;;;;;;;;15.30;47.60;;;;;;5052160;28;75271;-68
2021/05/05 01:10:33;;;;;;;;;;;15.30;47.50;;;;;;5052368;28;75950;-69
2021/05/05 01:12:59;;;;;;;;;;;15.30;47.50;;;;;;5053517;27;75115;-69
2021/05/05 01:15:25;;;;;;;;;;;15.30;47.60;;;;;;5052182;28;75074;-70
2021/05/05 01:17:51;;;;;;;;;;;15.30;47.40;;;;;;5053293;27;75247;-70
2021/05/05 01:20:16;;;;;;;;;;;15.30;47.60;;;;;;5053660;27;75824;-68
2021/05/05 01:22:42;;;;;;;;;;;15.30;47.50;;;;;;5051835;28;77659;-66
2021/05/05 01:25:10;;;;;;;;;;;15.30;47.70;;;;;;5051791;28;77225;-62
2021/05/05 01:27:35;;;;;;;;;;;15.30;47.90;;;;;;5053258;27;75063;-66
2021/05/05 01:30:03;;;;;;;;;;;15.20;48.10;;;;;;5051445;28;77166;-66
2021/05/05 01:32:28;;;;;;;;;;;15.20;48.30;;;;;;5051785;28;77421;-66
2021/05/05 01:34:54;;;;;;;;;;;15.10;48.60;;;;;;5052918;27;75167;-66
2021/05/05 01:37:20;;;;;;;;;;;15.00;48.80;;;;;;5051568;28;77494;-67
2021/05/05 01:39:45;;;;;;;;;;;15.00;48.80;;;;;;5051882;28;76743;-65
2021/05/05 01:42:11;;;;;;;;;;;15.00;49.00;;;;;;5051373;28;77683;-65
2021/05/05 01:44:37;;;;;;;;;;;15.00;49.20;;;;;;5053196;28;75576;-66
2021/05/05 01:47:04;;;;;;;;;;;14.90;48.90;;;;;;5051204;28;75128;-67
2021/05/05 01:49:29;;;;;;;;;;;14.90;49.00;;;;;;5051265;27;76439;-64
2021/05/05 01:51:56;;;;;;;;;;;14.90;49.20;;;;;;5051112;28;75929;-67
2021/05/05 01:54:23;;;;;;;;;;;14.90;49.30;;;;;;5051377;28;76214;-63
2021/05/05 01:56:48;;;;;;;;;;;14.90;49.20;;;;;;5051181;28;75162;-63
2021/05/05 01:59:14;;;;;;;;;;;14.90;49.20;;;;;;5052292;27;75635;-64
2021/05/05 02:01:40;;;;;;;;;;;14.90;49.40;;;;;;5051467;28;75409;-66
2021/05/05 02:04:05;;;;;;;;;;;14.90;49.30;;;;;;5053300;27;74404;-67
2021/05/05 02:06:32;;;;;;;;;;;14.90;49.40;;;;;;5050987;27;75947;-66
2021/05/05 02:08:58;;;;;;;;;;;14.90;49.10;;;;;;5052676;27;75002;-68
2021/05/05 02:11:24;;;;;;;;;;;14.90;48.10;;;;;;5051211;28;78610;-66
2021/05/05 02:13:50;;;;;;;;;;;14.90;47.00;;;;;;5053035;27;74528;-68
2021/05/05 02:16:15;;;;;;;;;;;15.00;46.40;;;;;;5052753;27;74487;-68
2021/05/05 02:18:41;;;;;;;;;;;15.00;46.30;;;;;;5051183;28;75402;-68
2021/05/05 02:21:07;;;;;;;;;;;15.00;46.10;;;;;;5050857;28;76906;-65
2021/05/05 02:23:32;;;;;;;;;;;15.00;46.10;;;;;;5051166;28;76369;-68
2021/05/05 02:25:58;;;;;;;;;;;15.00;46.20;;;;;;5050656;28;75576;-68
2021/05/05 02:28:24;;;;;;;;;;;15.00;46.10;;;;;;5051214;28;74808;-68
2021/05/05 02:30:50;;;;;;;;;;;15.10;46.10;;;;;;5051100;28;74720;-65
2021/05/05 02:33:15;;;;;;;;;;;15.00;46.10;;;;;;5050888;28;77221;-65
2021/05/05 02:35:41;;;;;;;;;;;15.10;46.10;;;;;;5051294;28;76661;-64
2021/05/05 02:38:07;;;;;;;;;;;15.00;46.20;;;;;;5050522;28;75345;-63
2021/05/05 02:40:33;;;;;;;;;;;15.00;46.30;;;;;;5050960;28;78042;-66
2021/05/05 02:42:58;;;;;;;;;;;15.00;46.20;;;;;;5050398;28;77298;-65
2021/05/05 02:45:24;;;;;;;;;;;14.90;46.40;;;;;;5052608;27;75107;-63
2021/05/05 02:47:50;;;;;;;;;;;14.90;46.60;;;;;;5050602;28;78073;-63
2021/05/05 02:50:15;;;;;;;;;;;14.80;46.70;;;;;;5052051;27;75197;-64
2021/05/05 02:52:41;;;;;;;;;;;14.80;46.80;;;;;;5052389;27;75930;-64
2021/05/05 02:55:08;;;;;;;;;;;14.80;46.90;;;;;;5051915;27;74888;-64
2021/05/05 02:57:33;;;;;;;;;;;14.70;47.20;;;;;;5050625;28;77645;-63
2021/05/05 02:59:59;;;;;;;;;;;14.70;47.20;;;;;;5052446;27;74955;-65
2021/05/05 03:02:26;;;;;;;;;;;14.70;47.10;;;;;;5051080;28;75747;-64
2021/05/05 03:04:53;;;;;;;;;;;14.60;47.20;;;;;;5050505;28;75632;-64
2021/05/05 03:07:19;;;;;;;;;;;14.70;47.20;;;;;;5050612;28;76014;-66
2021/05/05 03:09:44;;;;;;;;;;;14.70;47.30;;;;;;5052219;28;75210;-66
2021/05/05 03:12:10;;;;;;;;;;;14.70;47.40;;;;;;5053823;27;77219;-64
2021/05/05 03:14:36;;;;;;;;;;;14.70;47.60;;;;;;5055806;27;75076;-64
2021/05/05 03:17:01;;;;;;;;;;;14.70;47.40;;;;;;5054002;28;78008;-66
2021/05/05 03:19:27;;;;;;;;;;;14.70;47.40;;;;;;5055067;27;74924;-67
2021/05/05 03:21:53;;;;;;;;;;;14.70;47.50;;;;;;5053830;28;77950;-66
2021/05/05 03:24:19;;;;;;;;;;;14.70;47.40;;;;;;5055338;27;75740;-68
2021/05/05 03:26:44;;;;;;;;;;;14.70;47.40;;;;;;5053537;28;77626;-63
2021/05/05 03:29:10;;;;;;;;;;;14.70;47.20;;;;;;5053423;28;76474;-64
2021/05/05 03:31:36;;;;;;;;;;;14.70;47.20;;;;;;5054042;27;76985;-66
2021/05/05 03:34:02;;;;;;;;;;;14.70;47.40;;;;;;5053805;28;76199;-67
2021/05/05 03:36:28;;;;;;;;;;;14.80;47.40;;;;;;5053516;28;75153;-66
2021/05/05 03:38:54;;;;;;;;;;;14.80;47.50;;;;;;5053482;28;75696;-65
2021/05/05 03:41:19;;;;;;;;;;;14.80;47.40;;;;;;5053259;28;77014;-63
2021/05/05 03:43:45;;;;;;;;;;;14.80;47.60;;;;;;5055628;27;74369;-63
2021/05/05 03:46:11;;;;;;;;;;;14.80;47.70;;;;;;5054723;27;75190;-64
2021/05/05 03:48:36;;;;;;;;;;;14.80;47.80;;;;;;5055117;27;75303;-65
2021/05/05 03:51:03;;;;;;;;;;;14.80;48.40;;;;;;5053445;28;77402;-64
2021/05/05 03:53:29;;;;;;;;;;;14.60;49.00;;;;;;5054753;28;75151;-65
2021/05/05 03:55:55;;;;;;;;;;;14.50;48.80;;;;;;5055035;27;74998;-64
2021/05/05 03:58:21;;;;;;;;;;;14.40;49.10;;;;;;5054279;27;75532;-63
2021/05/05 04:00:46;;;;;;;;;;;14.30;49.10;;;;;;5054843;27;75718;-66
2021/05/05 04:03:12;;;;;;;;;;;14.20;49.40;;;;;;5053097;28;77176;-63
2021/05/05 04:05:38;;;;;;;;;;;14.20;49.50;;;;;;5052909;28;76277;-67
2021/05/05 04:08:03;;;;;;;;;;;14.20;49.70;;;;;;5053241;28;74800;-67
2021/05/05 04:10:29;;;;;;;;;;;14.20;49.60;;;;;;5054461;28;75716;-65
2021/05/05 04:12:55;;;;;;;;;;;14.20;49.70;;;;;;5053004;28;75751;-63
2021/05/05 04:15:20;;;;;;;;;;;14.10;49.90;;;;;;5052736;28;77173;-64
2021/05/05 04:17:46;;;;;;;;;;;14.00;50.10;;;;;;5052846;28;77164;-63
2021/05/05 04:20:13;;;;;;;;;;;13.90;50.20;;;;;;5054674;27;75516;-63
2021/05/05 04:22:39;;;;;;;;;;;13.90;50.40;;;;;;5053845;27;74436;-63
2021/05/05 04:25:04;;;;;;;;;;;13.90;50.60;;;;;;5054478;27;75487;-64
2021/05/05 04:27:30;;;;;;;;;;;13.90;50.70;;;;;;5053979;28;75209;-62
2021/05/05 04:29:56;;;;;;;;;;;13.90;50.90;;;;;;5054389;28;75198;-62
2021/05/05 04:32:22;;;;;;;;;;;13.90;50.90;;;;;;5052692;27;74970;-65
2021/05/05 04:34:47;;;;;;;;;;;13.90;51.00;;;;;;5052772;28;75462;-67
2021/05/05 04:37:13;;;;;;;;;;;13.90;51.10;;;;;;5052951;28;78194;-64
2021/05/05 04:39:39;;;;;;;;;;;13.80;51.30;;;;;;5054097;28;75053;-66
2021/05/05 04:42:05;;;;;;;;;;;13.80;51.30;;;;;;5054085;27;74512;-67
2021/05/05 04:44:34;;;;;;;;;;;13.70;51.70;;;;;;5052502;28;77250;-69
2021/05/05 04:47:00;;;;;;;;;;;13.70;51.40;;;;;;5054171;27;75224;-66
2021/05/05 04:49:26;;;;;;;;;;;13.70;51.70;;;;;;5052426;28;77473;-67
2021/05/05 04:51:51;;;;;;;;;;;13.60;51.80;;;;;;5052646;27;75623;-67
2021/05/05 04:54:17;;;;;;;;;;;13.50;52.10;;;;;;5052948;27;75336;-66
2021/05/05 04:56:43;;;;;;;;;;;13.60;52.00;;;;;;5053612;27;75394;-62
2021/05/05 04:59:08;;;;;;;;;;;13.50;52.10;;;;;;5052294;28;75523;-66
2021/05/05 05:01:34;;;;;;;;;;;13.50;52.40;;;;;;5053758;27;75296;-63
2021/05/05 05:03:59;;;;;;;;;;;13.50;52.30;;;;;;5053867;27;75312;-62
2021/05/05 05:06:25;;;;;;;;;;;13.50;52.50;;;;;;5053410;27;75104;-63
2021/05/05 05:08:51;;;;;;;;;;;13.50;52.50;;;;;;5052106;28;78324;-64
2021/05/05 05:11:16;;;;;;;;;;;13.50;52.90;;;;;;5051938;28;76198;-62
2021/05/05 05:13:42;;;;;;;;;;;13.40;52.60;;;;;;5053345;27;75816;-66
2021/05/05 05:16:08;;;;;;;;;;;13.40;52.70;;;;;;5051965;28;76508;-63
2021/05/05 05:18:34;;;;;;;;;;;13.40;52.70;;;;;;5053635;27;74996;-65
2021/05/05 05:21:01;;;;;;;;;;;13.40;52.80;;;;;;5053544;27;74839;-68
2021/05/05 05:23:27;;;;;;;;;;;13.40;52.90;;;;;;5052559;28;78113;-66
2021/05/05 05:25:52;;;;;;;;;;;13.40;53.00;;;;;;5053054;28;75189;-65
2021/05/05 05:28:18;;;;;;;;;;;13.40;53.00;;;;;;5053569;27;74515;-64
2021/05/05 05:30:44;;;;;;;;;;;13.30;53.50;;;;;;5051903;28;77012;-63
2021/05/05 05:33:09;;;;;;;;;;;13.20;53.30;;;;;;5049944;27;75789;-62
2021/05/05 05:35:35;;;;;;;;;;;13.20;53.70;;;;;;5045996;27;76308;-61
2021/05/05 05:38:00;;;;;;;;;;;13.20;53.60;;;;;;5050039;27;74759;-60
2021/05/05 05:40:26;;;;;;;;;;;13.20;53.70;;;;;;5047537;27;75778;-61
2021/05/05 05:42:52;;;;;;;;;;;13.20;53.70;;;;;;5047592;27;77290;-61
2021/05/05 05:45:18;;;;;;;;;;;13.20;53.60;;;;;;5051080;28;77518;-59
2021/05/05 05:47:45;;;;;;;;;;;13.20;53.80;;;;;;5052894;27;75040;-61
2021/05/05 05:50:11;;;;;;;;;;;13.20;53.60;;;;;;5053462;27;75338;-65
2021/05/05 05:52:36;;;;;;;;;;;13.20;53.80;;;;;;5050949;27;77892;-65
2021/05/05 05:55:03;;;;;;;;;;;13.20;53.60;;;;;;5051370;28;75685;-63
2021/05/05 05:57:29;;;;;;;;;;;13.20;53.60;;;;;;5049810;27;77324;-61
2021/05/05 05:59:54;;;;;;;;;;;13.20;53.80;;;;;;5031183;28;76302;-66
2021/05/05 06:02:20;;;;;;;;;;;13.20;53.50;;;;;;5047830;28;77251;-61
2021/05/05 06:04:45;;;;;;;;;;;13.20;53.50;;;;;;5050374;28;76756;-61
2021/05/05 06:07:11;;;;;;;;;;;13.40;53.30;;;;;;5052765;28;75216;-62
2021/05/05 06:09:37;;;;;;;;;;;13.40;53.10;;;;;;5052349;28;75335;-60
2021/05/05 06:12:03;;;;;;;;;;;13.40;52.90;;;;;;5052688;28;75120;-79
2021/05/05 06:14:28;;;;;;;;;;;13.50;52.70;;;;;;5050754;28;76424;-70
2021/05/05 06:16:54;;;;;;;;;;;13.50;52.50;;;;;;5052356;28;75187;-77
2021/05/05 06:19:19;;;;;;;;;;;13.60;52.50;;;;;;5052818;28;75267;-70
2021/05/05 06:21:45;;;;;;;;;;;13.60;52.50;;;;;;5052615;28;75244;-71
2021/05/05 06:24:11;;;;;;;;;;;13.60;52.60;;;;;;5049349;28;76070;-69
2021/05/05 06:26:36;;;;;;;;;;;13.80;52.60;;;;;;5049377;28;77609;-67
2021/05/05 06:29:02;;;;;;;;;;;13.90;52.60;;;;;;5050681;28;75180;-67
2021/05/05 06:31:28;;;;;;;;;;;13.90;52.40;;;;;;5052734;28;74436;-67
2021/05/05 06:33:53;;;;;;;;;;;14.00;51.70;;;;;;5049505;28;75322;-68
2021/05/05 06:36:19;;;;;;;;;;;14.10;51.70;;;;;;5049084;28;75837;-68
2021/05/05 06:38:45;;;;;;;;;;;14.10;51.90;;;;;;5051299;27;74561;-72
2021/05/05 06:41:11;;;;;;;;;;;14.20;51.80;;;;;;5050329;28;75866;-70
2021/05/05 06:43:36;;;;;;;;;;;14.30;51.70;;;;;;5051432;28;75634;-73
2021/05/05 06:46:02;;;;;;;;;;;14.40;51.60;;;;;;5053337;27;74986;-71
2021/05/05 06:48:28;;;;;;;;;;;14.40;51.50;;;;;;5055692;28;74852;-63
2021/05/05 06:50:53;;;;;;;;;;;14.50;51.40;;;;;;5055289;28;74527;-65
2021/05/05 06:53:19;;;;;;;;;;;14.60;51.10;;;;;;5054689;28;75145;-67
2021/05/05 06:55:45;;;;;;;;;;;14.70;50.80;;;;;;5054940;28;75178;-65
2021/05/05 06:58:10;;;;;;;;;;;14.80;50.40;;;;;;5055017;28;74396;-65
2021/05/05 07:00:36;;;;;;;;;;;14.90;50.40;;;;;;5053647;28;74618;-65
2021/05/05 07:03:02;;;;;;;;;;;14.90;50.40;;;;;;5054987;28;75125;-67
2021/05/05 07:05:28;;;;;;;;;;;15.00;50.40;;;;;;5054697;28;76477;-66
2021/05/05 07:07:53;;;;;;;;;;;15.10;50.20;;;;;;5052605;28;77060;-67
2021/05/05 07:10:20;;;;;;;;;;;15.10;49.90;;;;;;5053742;28;78440;-66
2021/05/05 07:12:45;;;;;;;;;;;15.20;49.70;;;;;;5054490;28;75716;-64
2021/05/05 07:15:11;;;;;;;;;;;15.30;49.90;;;;;;5054523;28;75574;-66
2021/05/05 07:17:37;;;;;;;;;;;15.40;49.90;;;;;;5054282;28;75760;-66
2021/05/05 07:20:03;;;;;;;;;;;15.40;49.70;;;;;;5055151;28;74635;-64
2021/05/05 07:22:28;;;;;;;;;;;15.50;49.40;;;;;;5053517;28;78206;-64
2021/05/05 07:24:54;;;;;;;;;;;15.60;49.20;;;;;;5053065;28;76897;-66
2021/05/05 07:27:21;;;;;;;;;;;15.60;48.70;;;;;;5052399;28;75529;-67
2021/05/05 07:29:47;;;;;;;;;;;15.60;48.60;;;;;;5052283;28;76142;-66
2021/05/05 07:32:12;;;;;;;;;;;15.60;48.80;;;;;;5054872;28;75158;-65
2021/05/05 07:34:40;;;;;;;;;;;15.80;48.50;;;;;;5054561;28;75094;-67
2021/05/05 07:37:09;;;;;;;;;;;15.90;48.40;;;;;;5052930;28;75825;-65
2021/05/05 07:47:36;;;;;;;;;;;16.10;47.60;;;;;;5052416;28;75498;-68
2021/05/05 07:50:04;;;;;;;;;;;16.20;47.30;;;;;;5055262;28;74434;-68
2021/05/05 07:52:30;;;;;;;;;;;16.20;47.20;;;;;;5053245;28;75824;-68
2021/05/05 07:54:56;;;;;;;;;;;16.30;47.30;;;;;;5054161;28;75078;-66
2021/05/05 07:57:22;;;;;;;;;;;16.40;46.90;;;;;;5051633;27;77638;-66
2021/05/05 07:59:48;;;;;;;;;;;16.50;47.00;;;;;;5052868;28;78025;-66
2021/05/05 08:02:14;;;;;;;;;;;16.60;46.50;;;;;;5055037;28;75669;-63
2021/05/05 08:04:48;;;;;;;;;;;16.70;46.00;;;;;;5050526;28;75549;-64
2021/05/05 08:07:15;;;;;;;;;;;16.70;45.90;;;;;;5050474;28;77146;-65
2021/05/05 08:09:40;;;;;;;;;;;16.90;45.90;;;;;;5052495;28;74673;-64
2021/05/05 08:12:06;;;;;;;;;;;17.00;45.70;;;;;;5054113;28;74542;-66
2021/05/05 08:14:32;;;;;;;;;;;17.10;45.00;;;;;;5053336;28;76330;-65
2021/05/05 08:16:57;;;;;;;;;;;17.20;45.00;;;;;;5054129;28;74592;-64
2021/05/05 08:19:23;;;;;;;;;;;17.30;44.50;;;;;;5054107;28;74584;-65
2021/05/05 08:21:48;;;;;;;;;;;17.40;44.60;;;;;;5054047;28;75354;-64
2021/05/05 08:24:14;;;;;;;;;;;17.50;44.40;;;;;;5052021;28;77395;-65
2021/05/05 08:26:40;;;;;;;;;;;17.60;44.40;;;;;;5053602;27;76363;-64
2021/05/05 08:29:06;;;;;;;;;;;17.70;43.80;;;;;;5053062;27;75443;-65
2021/05/05 08:31:31;;;;;;;;;;;17.80;43.90;;;;;;5054360;27;75028;-64
2021/05/05 08:33:57;;;;;;;;;;;17.80;44.00;;;;;;5051833;28;77906;-65
2021/05/05 08:36:22;;;;;;;;;;;17.90;44.10;;;;;;5054149;27;75118;-64
2021/05/05 08:38:48;;;;;;;;;;;18.00;43.90;;;;;;5054147;27;75322;-65
2021/05/05 08:41:14;;;;;;;;;;;18.20;43.90;;;;;;5053672;27;75160;-64
2021/05/05 08:43:41;;;;;;;;;;;18.30;43.10;;;;;;5051744;28;78123;-64
2021/05/05 08:46:07;;;;;;;;;;;18.30;42.80;;;;;;5053748;28;74731;-64
2021/05/05 08:48:35;;;;;;;;;;;18.30;42.20;;;;;;5052145;28;78625;-65
2021/05/05 08:51:01;;;;;;;;;;;18.40;42.10;;;;;;5052866;28;75021;-64
2021/05/05 08:53:26;;;;;;;;;;;18.50;42.40;;;;;;5052114;28;77417;-65
2021/05/05 08:55:52;;;;;;;;;;;18.60;41.90;;;;;;5053641;27;75128;-66
2021/05/05 08:58:18;;;;;;;;;;;18.70;42.10;;;;;;5053371;27;75540;-67
2021/05/05 09:00:43;;;;;;;;;;;18.80;41.80;;;;;;5052662;27;76485;-65
2021/05/05 09:03:09;;;;;;;;;;;18.80;41.70;;;;;;5051504;28;75199;-66
2021/05/05 09:05:48;;;;;;;;;;;18.90;41.80;;;;;;5051335;28;75581;-64
2021/05/05 09:08:14;;;;;;;;;;;18.90;41.30;;;;;;5049620;27;77365;-67
2021/05/05 09:10:55;;;;;;;;;;;19.00;41.10;;;;;;5049784;28;76483;-66
2021/05/05 09:13:39;;;;;;;;;;;19.10;41.30;;;;;;5053335;28;75118;-66
2021/05/05 09:16:08;;;;;;;;;;;19.20;38.90;;;;;;5050152;28;95130;-65
2021/05/05 09:18:52;;;;;;;;;;;19.20;40.00;;;;;;5052311;28;75805;-65
2021/05/05 09:21:27;;;;;;;;;;;19.30;40.40;;;;;;5053207;28;74537;-64
2021/05/05 09:24:12;;;;;;;;;;;19.40;40.50;;;;;;5051057;28;78513;-64
2021/05/05 09:26:38;;;;;;;;;;;19.50;39.30;;;;;;5052643;28;75441;-64
2021/05/05 09:29:04;;;;;;;;;;;19.50;39.20;;;;;;5048844;28;76923;-63
2021/05/05 09:31:33;;;;;;;;;;;19.60;39.70;;;;;;5051582;28;75698;-65
2021/05/05 09:33:59;;;;;;;;;;;19.70;39.60;;;;;;5052842;28;75065;-63
2021/05/05 09:36:24;;;;;;;;;;;19.80;38.60;;;;;;5052825;28;75100;-64
2021/05/05 09:38:50;;;;;;;;;;;19.90;39.30;;;;;;5051234;28;75508;-65
2021/05/05 09:41:17;;;;;;;;;;;20.00;40.00;;;;;;5051105;28;75626;-66
2021/05/05 09:43:43;;;;;;;;;;;20.10;38.90;;;;;;5051080;28;75896;-64
2021/05/05 09:46:27;;;;;;;;;;;20.20;38.90;;;;;;5052174;28;75954;-66
2021/05/05 09:48:53;;;;;;;;;;;20.30;37.10;;;;;;5051111;28;75871;-66
2021/05/05 09:51:18;;;;;;;;;;;20.40;37.80;;;;;;5051338;28;77440;-64
2021/05/05 09:53:47;;;;;;;;;;;20.50;38.30;;;;;;5050757;28;77493;-64
2021/05/05 09:56:12;;;;;;;;;;;20.70;37.20;;;;;;5050841;28;77210;-64
2021/05/05 09:58:38;;;;;;;;;;;20.90;37.10;;;;;;5052908;28;74865;-64
2021/05/05 10:01:03;;;;;;;;;;;21.00;37.60;;;;;;5050652;28;77941;-66
2021/05/05 10:03:48;;;;;;;;;;;21.20;37.30;;;;;;5048407;28;74684;-64
2021/05/05 10:06:26;;;;;;;;;;;21.50;37.70;;;;;;5047937;28;78354;-66
2021/05/05 10:08:53;;;;;;;;;;;21.90;36.50;;;;;;5048336;28;77598;-65
2021/05/05 10:11:20;;;;;;;;;;;22.10;35.60;;;;;;5047373;28;74807;-66
2021/05/05 10:14:06;;;;;;;;;;;22.30;34.80;;;;;;5048529;28;76381;-65
2021/05/05 10:16:36;;;;;;;;;;;22.60;35.80;;;;;;5047124;28;75970;-67
2021/05/05 10:19:05;;;;;;;;;;;22.90;33.20;;;;;;5048151;28;77321;-65
2021/05/05 10:21:32;;;;;;;;;;;23.00;34.70;;;;;;5049106;27;75206;-66
2021/05/05 10:23:59;;;;;;;;;;;23.20;33.90;;;;;;5048995;28;75258;-66
2021/05/05 10:26:25;;;;;;;;;;;23.40;32.70;;;;;;5049678;27;75050;-65
2021/05/05 10:28:51;;;;;;;;;;;23.60;31.10;;;;;;5047706;28;76546;-67
2021/05/05 10:31:23;;;;;;;;;;;23.70;32.30;;;;;;5049496;27;75117;-65
2021/05/05 10:33:51;;;;;;;;;;;23.80;31.60;;;;;;5048886;28;75350;-65
2021/05/05 10:36:29;;;;;;;;;;;24.00;31.70;;;;;;5044708;28;78091;-65
2021/05/05 10:38:55;;;;;;;;;;;24.30;31.40;;;;;;5048115;28;76084;-65
2021/05/05 10:41:21;;;;;;;;;;;24.70;31.00;;;;;;5048383;27;74814;-65
2021/05/05 10:43:50;;;;;;;;;;;24.90;31.50;;;;;;5049731;27;75659;-65
2021/05/05 10:46:28;;;;;;;;;;;25.00;29.90;;;;;;5049212;27;75290;-65
2021/05/05 10:49:03;;;;;;;;;;;25.10;29.40;;;;;;5047877;28;77621;-65
2021/05/05 10:51:55;;;;;;;;;;;25.30;30.20;;;;;;5049563;27;74634;-64
2021/05/05 10:54:40;;;;;;;;;;;25.90;30.30;;;;;;5047269;28;77389;-65
2021/05/05 10:57:15;;;;;;;;;;;26.50;29.00;;;;;;5048929;28;75399;-67
2021/05/05 10:59:56;;;;;;;;;;;27.30;27.90;;;;;;5047582;28;76619;-65
2021/05/05 11:02:45;;;;;;;;;;;27.50;27.60;;;;;;5049531;27;74983;-65
2021/05/05 11:05:41;;;;;;;;;;;28.00;26.00;;;;;;5047302;28;75932;-66
2021/05/05 11:08:08;;;;;;;;;;;28.60;26.80;;;;;;5035253;28;75791;-66
2021/05/05 11:10:34;;;;;;;;;;;29.20;25.00;;;;;;5049044;27;76141;-67
2021/05/05 11:13:03;;;;;;;;;;;29.40;25.00;;;;;;5049344;27;75641;-66
2021/05/05 11:15:41;;;;;;;;;;;30.20;24.70;;;;;;5048785;28;75187;-65
2021/05/05 11:18:34;;;;;;;;;;;31.20;23.80;;;;;;5047328;28;74598;-66
2021/05/05 11:21:00;;;;;;;;;;;31.80;23.10;;;;;;5047682;27;75658;-65
2021/05/05 11:23:45;;;;;;;;;;;32.80;22.90;;;;;;5047258;28;77526;-65
2021/05/05 11:26:13;;;;;;;;;;;34.00;22.00;;;;;;5048782;28;75725;-68
2021/05/05 11:28:56;;;;;;;;;;;34.70;19.80;;;;;;5049098;28;75192;-65
2021/05/05 11:31:42;;;;;;;;;;;35.10;19.90;;;;;;5049930;27;75246;-65
2021/05/05 11:34:08;;;;;;;;;;;36.30;19.50;;;;;;5029949;27;75840;-66
2021/05/05 11:36:34;;;;;;;;;;;37.50;17.40;;;;;;5050824;28;76547;-66
2021/05/05 11:38:59;;;;;;;;;;;37.70;17.20;;;;;;5050108;28;76358;-65
2021/05/05 11:41:27;;;;;;;;;;;38.40;17.40;;;;;;5050373;27;75719;-67
2021/05/05 11:43:52;;;;;;;;;;;38.90;16.90;;;;;;5049285;28;76909;-64
2021/05/05 11:46:22;;;;;;;;;;;38.70;16.60;;;;;;5049754;28;78475;-67
2021/05/05 11:48:47;;;;;;;;;;;38.30;16.80;;;;;;5051749;27;75881;-65
2021/05/05 11:51:17;;;;;;;;;;;38.80;17.20;;;;;;5050487;28;75258;-65
2021/05/05 11:53:43;;;;;;;;;;;39.90;16.60;;;;;;5052028;28;75680;-65
2021/05/05 11:56:18;;;;;;;;;;;41.20;16.00;;;;;;5049720;28;76424;-65
2021/05/05 11:58:52;;;;;;;;;;;41.60;15.20;;;;;;5049214;28;77206;-65
2021/05/05 12:01:31;;;;;;;;;;;42.40;14.90;;;;;;5048952;28;75999;-64
2021/05/05 12:04:16;;;;;;;;;;;42.40;15.20;;;;;;5050402;28;75335;-66
2021/05/05 12:07:11;;;;;;;;;;;43.30;15.30;;;;;;5048852;28;75515;-65
2021/05/05 12:09:38;;;;;;;;;;;43.90;14.50;;;;;;5042018;27;75002;-66
2021/05/05 12:12:23;;;;;;;;;;;44.40;14.60;;;;;;5051884;27;75988;-65
2021/05/05 12:14:53;;;;;;;;;;;44.90;14.50;;;;;;5050057;28;76436;-66
2021/05/05 12:17:28;;;;;;;;;;;45.70;14.40;;;;;;5051392;28;75621;-67
2021/05/05 12:20:07;;;;;;;;;;;46.10;14.30;;;;;;5052129;27;75401;-67
2021/05/05 12:22:34;;;;;;;;;;;46.50;14.30;;;;;;5049358;28;75707;-69
2021/05/05 12:25:03;;;;;;;;;;;47.00;13.40;;;;;;5050871;27;76128;-66
2021/05/05 12:27:28;;;;;;;;;;;46.10;14.00;;;;;;5052883;28;76748;-68
2021/05/05 12:30:01;;;;;;;;;;;46.30;14.20;;;;;;5053071;28;75789;-66
2021/05/05 12:32:42;;;;;;;;;;;46.40;13.20;;;;;;5054629;28;75376;-67
2021/05/05 12:35:09;;;;;;;;;;;46.00;13.70;;;;;;5052546;28;77273;-67
2021/05/05 12:37:34;;;;;;;;;;;46.30;13.90;;;;;;5052469;28;76074;-68
2021/05/05 12:40:00;;;;;;;;;;;46.80;13.90;;;;;;5052580;28;76363;-67
2021/05/05 12:42:33;;;;;;;;;;;47.30;14.20;;;;;;5053630;28;75144;-66
2021/05/05 12:45:12;;;;;;;;;;;47.70;12.90;;;;;;5053958;27;74422;-67
2021/05/05 12:47:39;;;;;;;;;;;48.10;13.40;;;;;;5052427;28;76295;-67
2021/05/05 12:50:06;;;;;;;;;;;49.10;12.40;;;;;;5052520;28;75374;-67
2021/05/05 12:52:34;;;;;;;;;;;49.00;13.00;;;;;;5053885;28;74563;-68
2021/05/05 12:55:01;;;;;;;;;;;48.80;12.80;;;;;;5054265;28;74668;-67
2021/05/05 12:57:27;;;;;;;;;;;47.70;13.10;;;;;;5053794;28;74531;-68
2021/05/05 12:59:53;;;;;;;;;;;48.00;13.30;;;;;;5052355;28;76780;-67
2021/05/05 13:02:24;;;;;;;;;;;48.80;13.10;;;;;;5052140;28;77231;-68
2021/05/05 13:04:50;;;;;;;;;;;49.30;12.80;;;;;;5052098;28;76313;-68
2021/05/05 13:07:26;;;;;;;;;;;49.70;12.80;;;;;;5053446;28;75504;-68
2021/05/05 13:10:14;;;;;;;;;;;50.60;12.60;;;;;;5053908;28;75399;-68
2021/05/05 13:12:50;;;;;;;;;;;51.00;12.70;;;;;;5052073;28;76779;-69
2021/05/05 13:15:29;;;;;;;;;;;51.30;12.40;;;;;;5052032;28;77110;-68
2021/05/05 13:18:27;;;;;;;;;;;50.90;12.20;;;;;;5053690;28;75273;-69
2021/05/05 13:32:35;;;;;;;;;;;52.00;12.00;;;;;;5053639;28;74690;-66
2021/05/05 13:35:20;;;;;;;;;;;52.40;12.30;;;;;;5052012;28;74817;-66
2021/05/05 13:38:05;;;;;;;;;;;51.60;11.20;;;;;;5053419;28;75045;-67
2021/05/05 13:40:34;;;;;;;;;;;50.50;11.70;;;;;;5052154;28;75977;-67
2021/05/05 13:43:01;;;;;;;;;;;50.90;12.00;;;;;;5051563;28;75945;-68
2021/05/05 13:45:31;;;;;;;;;;;50.90;12.30;;;;;;5051681;28;77265;-68
2021/05/05 13:50:31;;;;;;;;;;;49.00;12.60;;;;;;5051541;28;74909;-68
2021/05/05 13:52:57;;;;;;;;;;;48.60;12.30;;;;;;5051455;28;76106;-68
2021/05/05 13:55:22;;;;;;;;;;;47.90;12.40;;;;;;5050355;27;75575;-67
2021/05/05 13:57:48;;;;;;;;;;;48.90;12.70;;;;;;5051068;28;74549;-67
2021/05/05 14:00:14;;;;;;;;;;;50.40;12.60;;;;;;5053124;28;75536;-67
2021/05/05 14:02:40;;;;;;;;;;;51.60;12.20;;;;;;5052822;28;75305;-68
2021/05/05 14:05:06;;;;;;;;;;;52.10;12.30;;;;;;5050855;28;77296;-67
2021/05/05 14:07:35;;;;;;;;;;;52.00;11.60;;;;;;5052901;28;74538;-69
2021/05/05 14:10:01;;;;;;;;;;;51.20;11.40;;;;;;5052964;28;75214;-67
2021/05/05 14:12:26;;;;;;;;;;;50.80;11.70;;;;;;5050879;28;77204;-68
2021/05/05 14:14:52;;;;;;;;;;;50.40;12.00;;;;;;5051403;28;78430;-68
2021/05/05 14:17:18;;;;;;;;;;;50.00;11.80;;;;;;5050978;28;75688;-68
2021/05/05 14:19:44;;;;;;;;;;;49.70;11.10;;;;;;5050774;28;76661;-68
2021/05/05 14:22:09;;;;;;;;;;;49.50;11.90;;;;;;5053353;28;74498;-69
2021/05/05 14:24:35;;;;;;;;;;;49.60;11.50;;;;;;5052368;28;76225;-68
2021/05/05 14:27:01;;;;;;;;;;;49.80;11.60;;;;;;5050882;28;77363;-69
2021/05/05 14:29:26;;;;;;;;;;;49.60;11.90;;;;;;5052739;28;75061;-68
2021/05/05 14:31:52;;;;;;;;;;;50.10;11.90;;;;;;5052407;28;74978;-69
2021/05/05 14:34:17;;;;;;;;;;;50.70;11.40;;;;;;5050922;28;78255;-68
2021/05/05 14:36:43;;;;;;;;;;;51.10;11.70;;;;;;5050586;28;74757;-67
2021/05/05 14:39:13;;;;;;;;;;;50.50;12.00;;;;;;5050660;28;74679;-69
2021/05/05 14:41:40;;;;;;;;;;;51.00;11.60;;;;;;5050895;28;75383;-68